Terminal Aerodrome Forecast
Issued by NWS

Home | Current Version | Previous Version | Text Only | Print | Product List | Glossary Off
Versions: 1 2 3 4 5 6 7 8 9 10 11 12

210
FTUS44 KTSA 280520
TAFMLC
TAF
KMLC 280520Z 2806/2906 02003KT P6SM SCT250
     FM281800 04006KT P6SM SCT050 SCT250
     FM290100 03003KT P6SM SCT250=

USA.gov is the U.S. government's official web portal to all federal, state and local government web resources and services.